sensor_id;sensor_type;location;lat;lon;timestamp;P1;durP1;ratioP1;P2;durP2;ratioP2
73089;SDS011;61269;49.450;8.610;2022-12-29T00:02:16;5.45;;;2.53;;
73089;SDS011;61269;49.450;8.610;2022-12-29T00:04:46;5.87;;;2.23;;
73089;SDS011;61269;49.450;8.610;2022-12-29T00:07:14;9.52;;;2.80;;
73089;SDS011;61269;49.450;8.610;2022-12-29T00:09:43;6.55;;;2.67;;
73089;SDS011;61269;49.450;8.610;2022-12-29T00:12:12;5.60;;;2.40;;
73089;SDS011;61269;49.450;8.610;2022-12-29T00:14:40;6.13;;;2.20;;
73089;SDS011;61269;49.450;8.610;2022-12-29T00:17:26;4.33;;;2.13;;
73089;SDS011;61269;49.450;8.610;2022-12-29T00:19:55;7.25;;;1.85;;
73089;SDS011;61269;49.450;8.610;2022-12-29T00:22:43;5.82;;;2.10;;
73089;SDS011;61269;49.450;8.610;2022-12-29T00:25:29;5.90;;;2.05;;
73089;SDS011;61269;49.450;8.610;2022-12-29T00:28:15;5.88;;;2.17;;
73089;SDS011;61269;49.450;8.610;2022-12-29T00:31:00;5.10;;;2.10;;
73089;SDS011;61269;49.450;8.610;2022-12-29T00:33:46;4.82;;;2.20;;
73089;SDS011;61269;49.450;8.610;2022-12-29T00:36:35;6.35;;;2.47;;
73089;SDS011;61269;49.450;8.610;2022-12-29T00:39:06;6.75;;;2.72;;
73089;SDS011;61269;49.450;8.610;2022-12-29T00:41:53;7.18;;;2.50;;
73089;SDS011;61269;49.450;8.610;2022-12-29T00:44:39;6.97;;;2.50;;
73089;SDS011;61269;49.450;8.610;2022-12-29T00:47:09;5.95;;;2.33;;
73089;SDS011;61269;49.450;8.610;2022-12-29T00:49:37;7.65;;;3.53;;
73089;SDS011;61269;49.450;8.610;2022-12-29T00:52:07;5.32;;;2.55;;
73089;SDS011;61269;49.450;8.610;2022-12-29T00:54:36;5.38;;;2.75;;
73089;SDS011;61269;49.450;8.610;2022-12-29T00:57:06;6.47;;;2.07;;
73089;SDS011;61269;49.450;8.610;2022-12-29T00:59:36;5.82;;;2.20;;
73089;SDS011;61269;49.450;8.610;2022-12-29T01:02:05;5.03;;;2.05;;
73089;SDS011;61269;49.450;8.610;2022-12-29T01:04:34;4.88;;;1.98;;
73089;SDS011;61269;49.450;8.610;2022-12-29T01:07:02;4.90;;;1.95;;
73089;SDS011;61269;49.450;8.610;2022-12-29T01:09:32;6.17;;;2.33;;
73089;SDS011;61269;49.450;8.610;2022-12-29T01:12:18;5.25;;;1.73;;
73089;SDS011;61269;49.450;8.610;2022-12-29T01:15:10;6.60;;;2.63;;
73089;SDS011;61269;49.450;8.610;2022-12-29T01:17:41;5.50;;;2.00;;
73089;SDS011;61269;49.450;8.610;2022-12-29T01:20:09;6.45;;;1.90;;
73089;SDS011;61269;49.450;8.610;2022-12-29T01:22:38;13.27;;;2.30;;
73089;SDS011;61269;49.450;8.610;2022-12-29T01:25:10;5.80;;;1.85;;
73089;SDS011;61269;49.450;8.610;2022-12-29T01:27:39;4.82;;;2.10;;
73089;SDS011;61269;49.450;8.610;2022-12-29T01:30:07;8.00;;;2.25;;
73089;SDS011;61269;49.450;8.610;2022-12-29T01:32:36;4.30;;;1.92;;
73089;SDS011;61269;49.450;8.610;2022-12-29T01:35:04;6.33;;;2.53;;
73089;SDS011;61269;49.450;8.610;2022-12-29T01:37:34;6.78;;;1.80;;
73089;SDS011;61269;49.450;8.610;2022-12-29T01:40:02;4.13;;;1.63;;
73089;SDS011;61269;49.450;8.610;2022-12-29T01:42:33;5.25;;;1.77;;
73089;SDS011;61269;49.450;8.610;2022-12-29T01:45:01;4.55;;;1.50;;
73089;SDS011;61269;49.450;8.610;2022-12-29T01:47:33;6.47;;;1.90;;
73089;SDS011;61269;49.450;8.610;2022-12-29T01:50:03;3.72;;;1.52;;
73089;SDS011;61269;49.450;8.610;2022-12-29T01:52:33;3.78;;;1.50;;
73089;SDS011;61269;49.450;8.610;2022-12-29T01:55:03;3.50;;;1.50;;
73089;SDS011;61269;49.450;8.610;2022-12-29T01:57:35;5.50;;;1.55;;
73089;SDS011;61269;49.450;8.610;2022-12-29T02:00:06;3.80;;;1.50;;
73089;SDS011;61269;49.450;8.610;2022-12-29T02:02:39;3.40;;;1.45;;
73089;SDS011;61269;49.450;8.610;2022-12-29T02:05:09;3.88;;;1.38;;
73089;SDS011;61269;49.450;8.610;2022-12-29T02:07:44;4.63;;;1.70;;
73089;SDS011;61269;49.450;8.610;2022-12-29T02:10:12;4.40;;;1.42;;
73089;SDS011;61269;49.450;8.610;2022-12-29T02:12:42;6.07;;;2.10;;
73089;SDS011;61269;49.450;8.610;2022-12-29T02:15:10;4.45;;;1.45;;
73089;SDS011;61269;49.450;8.610;2022-12-29T02:17:41;3.10;;;1.38;;
73089;SDS011;61269;49.450;8.610;2022-12-29T02:23:31;4.50;;;1.33;;
73089;SDS011;61269;49.450;8.610;2022-12-29T02:26:43;4.03;;;1.30;;
73089;SDS011;61269;49.450;8.610;2022-12-29T02:29:23;3.95;;;1.50;;
73089;SDS011;61269;49.450;8.610;2022-12-29T02:32:06;4.07;;;1.10;;
73089;SDS011;61269;49.450;8.610;2022-12-29T02:34:38;3.22;;;1.20;;
73089;SDS011;61269;49.450;8.610;2022-12-29T02:37:13;3.97;;;1.33;;
73089;SDS011;61269;49.450;8.610;2022-12-29T02:39:50;3.67;;;1.30;;
73089;SDS011;61269;49.450;8.610;2022-12-29T02:42:21;4.20;;;1.45;;
73089;SDS011;61269;49.450;8.610;2022-12-29T02:44:52;3.92;;;1.10;;
73089;SDS011;61269;49.450;8.610;2022-12-29T02:47:26;4.20;;;1.88;;
73089;SDS011;61269;49.450;8.610;2022-12-29T02:49:59;4.78;;;1.50;;
73089;SDS011;61269;49.450;8.610;2022-12-29T02:52:30;4.03;;;1.30;;
73089;SDS011;61269;49.450;8.610;2022-12-29T02:55:02;4.05;;;1.63;;
73089;SDS011;61269;49.450;8.610;2022-12-29T02:57:31;5.07;;;1.42;;
73089;SDS011;61269;49.450;8.610;2022-12-29T03:00:04;3.50;;;1.40;;
73089;SDS011;61269;49.450;8.610;2022-12-29T03:02:39;7.32;;;2.17;;
73089;SDS011;61269;49.450;8.610;2022-12-29T03:05:22;4.53;;;1.63;;
73089;SDS011;61269;49.450;8.610;2022-12-29T03:08:00;4.65;;;1.73;;
73089;SDS011;61269;49.450;8.610;2022-12-29T03:10:35;3.97;;;1.45;;
73089;SDS011;61269;49.450;8.610;2022-12-29T03:13:08;4.15;;;1.20;;
73089;SDS011;61269;49.450;8.610;2022-12-29T03:16:00;4.72;;;1.65;;
73089;SDS011;61269;49.450;8.610;2022-12-29T03:18:37;5.73;;;1.90;;
73089;SDS011;61269;49.450;8.610;2022-12-29T03:21:09;4.90;;;2.08;;
73089;SDS011;61269;49.450;8.610;2022-12-29T03:23:41;3.65;;;1.83;;
73089;SDS011;61269;49.450;8.610;2022-12-29T03:26:16;4.68;;;1.70;;
73089;SDS011;61269;49.450;8.610;2022-12-29T03:28:46;6.78;;;1.45;;
73089;SDS011;61269;49.450;8.610;2022-12-29T03:31:20;4.27;;;1.50;;
73089;SDS011;61269;49.450;8.610;2022-12-29T03:33:53;6.32;;;1.75;;
73089;SDS011;61269;49.450;8.610;2022-12-29T03:36:27;3.35;;;1.65;;
73089;SDS011;61269;49.450;8.610;2022-12-29T03:39:02;3.90;;;1.40;;
73089;SDS011;61269;49.450;8.610;2022-12-29T03:41:32;4.38;;;1.80;;
73089;SDS011;61269;49.450;8.610;2022-12-29T03:44:02;4.10;;;1.50;;
73089;SDS011;61269;49.450;8.610;2022-12-29T03:46:31;3.95;;;1.75;;
73089;SDS011;61269;49.450;8.610;2022-12-29T03:49:01;5.13;;;1.73;;
73089;SDS011;61269;49.450;8.610;2022-12-29T03:51:29;4.43;;;1.98;;
73089;SDS011;61269;49.450;8.610;2022-12-29T03:53:57;3.40;;;1.40;;
73089;SDS011;61269;49.450;8.610;2022-12-29T03:56:26;4.17;;;1.30;;
73089;SDS011;61269;49.450;8.610;2022-12-29T03:58:54;3.38;;;1.38;;
73089;SDS011;61269;49.450;8.610;2022-12-29T04:01:37;3.53;;;1.52;;
73089;SDS011;61269;49.450;8.610;2022-12-29T04:04:08;4.53;;;1.50;;
73089;SDS011;61269;49.450;8.610;2022-12-29T04:06:36;3.15;;;1.23;;
73089;SDS011;61269;49.450;8.610;2022-12-29T04:09:06;4.27;;;1.57;;
73089;SDS011;61269;49.450;8.610;2022-12-29T04:11:40;4.70;;;1.70;;
73089;SDS011;61269;49.450;8.610;2022-12-29T04:14:08;3.78;;;1.27;;
73089;SDS011;61269;49.450;8.610;2022-12-29T04:16:36;3.78;;;1.48;;
73089;SDS011;61269;49.450;8.610;2022-12-29T04:19:07;4.03;;;1.70;;
73089;SDS011;61269;49.450;8.610;2022-12-29T04:21:36;3.83;;;1.53;;
73089;SDS011;61269;49.450;8.610;2022-12-29T04:24:05;4.63;;;1.65;;
73089;SDS011;61269;49.450;8.610;2022-12-29T04:26:38;3.15;;;1.25;;
73089;SDS011;61269;49.450;8.610;2022-12-29T04:29:27;2.80;;;1.20;;
73089;SDS011;61269;49.450;8.610;2022-12-29T04:32:13;2.80;;;1.20;;
73089;SDS011;61269;49.450;8.610;2022-12-29T04:34:48;3.67;;;1.60;;
73089;SDS011;61269;49.450;8.610;2022-12-29T04:37:17;3.72;;;1.50;;
73089;SDS011;61269;49.450;8.610;2022-12-29T04:39:45;3.05;;;1.42;;
73089;SDS011;61269;49.450;8.610;2022-12-29T04:42:14;4.15;;;1.30;;
73089;SDS011;61269;49.450;8.610;2022-12-29T04:44:43;3.63;;;1.40;;
73089;SDS011;61269;49.450;8.610;2022-12-29T04:47:16;4.60;;;1.43;;
73089;SDS011;61269;49.450;8.610;2022-12-29T04:49:53;3.53;;;1.40;;
73089;SDS011;61269;49.450;8.610;2022-12-29T04:52:37;3.88;;;1.20;;
73089;SDS011;61269;49.450;8.610;2022-12-29T04:55:07;3.30;;;1.20;;
73089;SDS011;61269;49.450;8.610;2022-12-29T04:57:36;3.03;;;1.20;;
73089;SDS011;61269;49.450;8.610;2022-12-29T05:00:05;3.20;;;1.10;;
73089;SDS011;61269;49.450;8.610;2022-12-29T05:02:36;3.35;;;1.38;;
73089;SDS011;61269;49.450;8.610;2022-12-29T05:05:06;3.05;;;1.70;;
73089;SDS011;61269;49.450;8.610;2022-12-29T05:07:40;3.70;;;1.50;;
73089;SDS011;61269;49.450;8.610;2022-12-29T05:10:08;3.35;;;1.50;;
73089;SDS011;61269;49.450;8.610;2022-12-29T05:12:37;2.40;;;1.27;;
73089;SDS011;61269;49.450;8.610;2022-12-29T05:15:10;3.78;;;1.33;;
73089;SDS011;61269;49.450;8.610;2022-12-29T05:17:38;3.38;;;1.20;;
73089;SDS011;61269;49.450;8.610;2022-12-29T05:20:09;3.03;;;1.40;;
73089;SDS011;61269;49.450;8.610;2022-12-29T05:22:38;3.90;;;1.30;;
73089;SDS011;61269;49.450;8.610;2022-12-29T05:25:06;4.07;;;1.40;;
73089;SDS011;61269;49.450;8.610;2022-12-29T05:27:47;3.83;;;1.10;;
73089;SDS011;61269;49.450;8.610;2022-12-29T05:30:21;3.17;;;1.35;;
73089;SDS011;61269;49.450;8.610;2022-12-29T05:32:49;3.92;;;1.52;;
73089;SDS011;61269;49.450;8.610;2022-12-29T05:35:19;3.25;;;1.30;;
73089;SDS011;61269;49.450;8.610;2022-12-29T05:37:47;3.30;;;1.43;;
73089;SDS011;61269;49.450;8.610;2022-12-29T05:40:15;3.75;;;1.48;;
73089;SDS011;61269;49.450;8.610;2022-12-29T05:42:43;3.67;;;1.35;;
73089;SDS011;61269;49.450;8.610;2022-12-29T05:45:28;4.82;;;1.48;;
73089;SDS011;61269;49.450;8.610;2022-12-29T05:48:24;5.20;;;1.58;;
73089;SDS011;61269;49.450;8.610;2022-12-29T05:51:31;3.07;;;1.40;;
73089;SDS011;61269;49.450;8.610;2022-12-29T05:54:00;3.72;;;1.30;;
73089;SDS011;61269;49.450;8.610;2022-12-29T05:56:28;4.72;;;1.38;;
73089;SDS011;61269;49.450;8.610;2022-12-29T05:58:58;5.60;;;1.63;;
73089;SDS011;61269;49.450;8.610;2022-12-29T06:01:26;3.22;;;1.38;;
73089;SDS011;61269;49.450;8.610;2022-12-29T06:03:54;4.37;;;1.77;;
73089;SDS011;61269;49.450;8.610;2022-12-29T06:06:22;3.53;;;1.52;;
73089;SDS011;61269;49.450;8.610;2022-12-29T06:08:52;3.80;;;1.35;;
73089;SDS011;61269;49.450;8.610;2022-12-29T06:11:20;3.67;;;1.30;;
73089;SDS011;61269;49.450;8.610;2022-12-29T06:13:54;3.25;;;1.50;;
73089;SDS011;61269;49.450;8.610;2022-12-29T06:16:23;5.07;;;1.47;;
73089;SDS011;61269;49.450;8.610;2022-12-29T06:18:55;3.08;;;1.50;;
73089;SDS011;61269;49.450;8.610;2022-12-29T06:21:23;3.67;;;1.20;;
73089;SDS011;61269;49.450;8.610;2022-12-29T06:23:52;6.82;;;1.42;;
73089;SDS011;61269;49.450;8.610;2022-12-29T06:26:20;4.18;;;1.52;;
73089;SDS011;61269;49.450;8.610;2022-12-29T06:28:48;4.63;;;1.70;;
73089;SDS011;61269;49.450;8.610;2022-12-29T06:31:16;6.93;;;2.78;;
73089;SDS011;61269;49.450;8.610;2022-12-29T06:33:45;7.07;;;2.35;;
73089;SDS011;61269;49.450;8.610;2022-12-29T06:36:16;5.15;;;1.67;;
73089;SDS011;61269;49.450;8.610;2022-12-29T06:38:44;4.55;;;1.67;;
73089;SDS011;61269;49.450;8.610;2022-12-29T06:41:13;3.43;;;1.53;;
73089;SDS011;61269;49.450;8.610;2022-12-29T06:43:43;4.30;;;1.55;;
73089;SDS011;61269;49.450;8.610;2022-12-29T06:46:28;5.18;;;1.90;;
73089;SDS011;61269;49.450;8.610;2022-12-29T06:48:56;4.78;;;1.75;;
73089;SDS011;61269;49.450;8.610;2022-12-29T06:51:24;5.43;;;1.83;;
73089;SDS011;61269;49.450;8.610;2022-12-29T06:53:52;4.77;;;1.67;;
73089;SDS011;61269;49.450;8.610;2022-12-29T06:56:21;5.95;;;1.80;;
73089;SDS011;61269;49.450;8.610;2022-12-29T06:58:50;6.60;;;2.00;;
73089;SDS011;61269;49.450;8.610;2022-12-29T07:01:18;5.47;;;1.83;;
73089;SDS011;61269;49.450;8.610;2022-12-29T07:03:46;4.50;;;1.90;;
73089;SDS011;61269;49.450;8.610;2022-12-29T07:06:14;4.80;;;1.47;;
73089;SDS011;61269;49.450;8.610;2022-12-29T07:08:42;5.45;;;1.73;;
73089;SDS011;61269;49.450;8.610;2022-12-29T07:11:10;5.03;;;1.92;;
73089;SDS011;61269;49.450;8.610;2022-12-29T07:13:40;5.10;;;2.20;;
73089;SDS011;61269;49.450;8.610;2022-12-29T07:16:08;5.95;;;2.13;;
73089;SDS011;61269;49.450;8.610;2022-12-29T07:18:37;5.37;;;1.90;;
73089;SDS011;61269;49.450;8.610;2022-12-29T07:21:05;6.45;;;2.40;;
73089;SDS011;61269;49.450;8.610;2022-12-29T07:23:33;5.20;;;2.13;;
73089;SDS011;61269;49.450;8.610;2022-12-29T07:26:01;4.40;;;1.85;;
73089;SDS011;61269;49.450;8.610;2022-12-29T07:28:31;4.80;;;1.90;;
73089;SDS011;61269;49.450;8.610;2022-12-29T07:31:01;4.33;;;1.80;;
73089;SDS011;61269;49.450;8.610;2022-12-29T07:33:29;7.70;;;3.00;;
73089;SDS011;61269;49.450;8.610;2022-12-29T07:35:58;5.45;;;1.90;;
73089;SDS011;61269;49.450;8.610;2022-12-29T07:38:26;6.97;;;1.95;;
73089;SDS011;61269;49.450;8.610;2022-12-29T07:40:56;7.22;;;2.22;;
73089;SDS011;61269;49.450;8.610;2022-12-29T07:43:26;5.63;;;1.90;;
73089;SDS011;61269;49.450;8.610;2022-12-29T07:46:24;6.22;;;2.50;;
73089;SDS011;61269;49.450;8.610;2022-12-29T07:49:12;5.97;;;2.10;;
73089;SDS011;61269;49.450;8.610;2022-12-29T07:51:40;6.53;;;1.90;;
73089;SDS011;61269;49.450;8.610;2022-12-29T07:54:08;5.60;;;1.90;;
73089;SDS011;61269;49.450;8.610;2022-12-29T07:56:38;5.27;;;2.23;;
73089;SDS011;61269;49.450;8.610;2022-12-29T07:59:07;5.13;;;2.08;;
73089;SDS011;61269;49.450;8.610;2022-12-29T08:01:36;5.53;;;2.05;;
73089;SDS011;61269;49.450;8.610;2022-12-29T08:04:04;4.88;;;1.80;;
73089;SDS011;61269;49.450;8.610;2022-12-29T08:06:32;5.07;;;2.15;;
73089;SDS011;61269;49.450;8.610;2022-12-29T08:09:01;4.93;;;2.00;;
73089;SDS011;61269;49.450;8.610;2022-12-29T08:11:40;6.05;;;1.80;;
73089;SDS011;61269;49.450;8.610;2022-12-29T08:14:09;6.50;;;1.85;;
73089;SDS011;61269;49.450;8.610;2022-12-29T08:16:48;5.70;;;1.88;;
73089;SDS011;61269;49.450;8.610;2022-12-29T08:19:16;4.47;;;2.17;;
73089;SDS011;61269;49.450;8.610;2022-12-29T08:21:44;3.90;;;1.70;;
73089;SDS011;61269;49.450;8.610;2022-12-29T08:24:12;6.72;;;2.10;;
73089;SDS011;61269;49.450;8.610;2022-12-29T08:26:40;6.75;;;2.03;;
73089;SDS011;61269;49.450;8.610;2022-12-29T08:29:09;4.47;;;1.60;;
73089;SDS011;61269;49.450;8.610;2022-12-29T08:31:36;6.10;;;2.00;;
73089;SDS011;61269;49.450;8.610;2022-12-29T08:34:06;4.23;;;1.80;;
73089;SDS011;61269;49.450;8.610;2022-12-29T08:36:34;5.13;;;1.92;;
73089;SDS011;61269;49.450;8.610;2022-12-29T08:39:03;6.15;;;2.28;;
73089;SDS011;61269;49.450;8.610;2022-12-29T08:41:31;6.53;;;2.00;;
73089;SDS011;61269;49.450;8.610;2022-12-29T08:43:59;5.32;;;2.22;;
73089;SDS011;61269;49.450;8.610;2022-12-29T08:46:27;6.07;;;1.80;;
73089;SDS011;61269;49.450;8.610;2022-12-29T08:48:55;7.30;;;1.95;;
73089;SDS011;61269;49.450;8.610;2022-12-29T08:51:25;6.25;;;2.42;;
73089;SDS011;61269;49.450;8.610;2022-12-29T08:53:53;5.90;;;2.20;;
73089;SDS011;61269;49.450;8.610;2022-12-29T08:56:21;5.80;;;1.92;;
73089;SDS011;61269;49.450;8.610;2022-12-29T08:58:53;6.37;;;2.30;;
73089;SDS011;61269;49.450;8.610;2022-12-29T09:01:23;5.28;;;2.20;;
73089;SDS011;61269;49.450;8.610;2022-12-29T09:03:52;8.25;;;2.42;;
73089;SDS011;61269;49.450;8.610;2022-12-29T09:06:42;7.00;;;2.15;;
73089;SDS011;61269;49.450;8.610;2022-12-29T09:09:10;6.80;;;2.20;;
73089;SDS011;61269;49.450;8.610;2022-12-29T09:11:38;4.97;;;1.77;;
73089;SDS011;61269;49.450;8.610;2022-12-29T09:14:07;7.18;;;2.40;;
73089;SDS011;61269;49.450;8.610;2022-12-29T09:16:35;5.35;;;2.20;;
73089;SDS011;61269;49.450;8.610;2022-12-29T09:19:04;5.95;;;1.85;;
73089;SDS011;61269;49.450;8.610;2022-12-29T09:21:32;8.40;;;2.42;;
73089;SDS011;61269;49.450;8.610;2022-12-29T09:24:01;7.43;;;2.33;;
73089;SDS011;61269;49.450;8.610;2022-12-29T09:26:30;6.53;;;2.22;;
73089;SDS011;61269;49.450;8.610;2022-12-29T09:28:58;5.85;;;2.35;;
73089;SDS011;61269;49.450;8.610;2022-12-29T09:31:26;6.20;;;2.05;;
73089;SDS011;61269;49.450;8.610;2022-12-29T09:33:54;7.20;;;1.90;;
73089;SDS011;61269;49.450;8.610;2022-12-29T09:36:22;4.27;;;1.73;;
73089;SDS011;61269;49.450;8.610;2022-12-29T09:38:52;4.95;;;1.90;;
73089;SDS011;61269;49.450;8.610;2022-12-29T09:41:23;6.30;;;2.03;;
73089;SDS011;61269;49.450;8.610;2022-12-29T09:43:58;4.38;;;1.80;;
73089;SDS011;61269;49.450;8.610;2022-12-29T09:46:32;4.80;;;1.73;;
73089;SDS011;61269;49.450;8.610;2022-12-29T09:49:06;3.03;;;1.47;;
73089;SDS011;61269;49.450;8.610;2022-12-29T09:51:37;3.58;;;1.48;;
73089;SDS011;61269;49.450;8.610;2022-12-29T09:54:14;4.80;;;1.55;;
73089;SDS011;61269;49.450;8.610;2022-12-29T09:56:51;6.60;;;2.20;;
73089;SDS011;61269;49.450;8.610;2022-12-29T09:59:21;4.88;;;1.42;;
73089;SDS011;61269;49.450;8.610;2022-12-29T10:01:53;4.97;;;1.70;;
73089;SDS011;61269;49.450;8.610;2022-12-29T10:04:26;5.97;;;1.70;;
73089;SDS011;61269;49.450;8.610;2022-12-29T10:06:55;4.88;;;1.58;;
73089;SDS011;61269;49.450;8.610;2022-12-29T10:09:47;5.32;;;1.80;;
73089;SDS011;61269;49.450;8.610;2022-12-29T10:12:24;4.20;;;1.80;;
73089;SDS011;61269;49.450;8.610;2022-12-29T10:15:01;5.07;;;1.83;;
73089;SDS011;61269;49.450;8.610;2022-12-29T10:17:34;5.10;;;1.58;;
73089;SDS011;61269;49.450;8.610;2022-12-29T10:22:57;5.55;;;1.73;;
73089;SDS011;61269;49.450;8.610;2022-12-29T10:25:37;3.65;;;1.48;;
73089;SDS011;61269;49.450;8.610;2022-12-29T10:28:10;3.17;;;1.33;;
73089;SDS011;61269;49.450;8.610;2022-12-29T10:30:45;4.53;;;1.55;;
73089;SDS011;61269;49.450;8.610;2022-12-29T10:33:15;4.40;;;1.27;;
73089;SDS011;61269;49.450;8.610;2022-12-29T10:35:47;3.60;;;1.40;;
73089;SDS011;61269;49.450;8.610;2022-12-29T10:38:17;5.00;;;1.80;;
73089;SDS011;61269;49.450;8.610;2022-12-29T10:40:51;6.53;;;2.10;;
73089;SDS011;61269;49.450;8.610;2022-12-29T10:43:24;5.50;;;1.85;;
73089;SDS011;61269;49.450;8.610;2022-12-29T10:45:54;4.25;;;1.50;;
73089;SDS011;61269;49.450;8.610;2022-12-29T10:48:24;6.75;;;1.80;;
73089;SDS011;61269;49.450;8.610;2022-12-29T10:50:58;3.65;;;1.60;;
73089;SDS011;61269;49.450;8.610;2022-12-29T10:53:30;4.13;;;1.70;;
73089;SDS011;61269;49.450;8.610;2022-12-29T10:56:03;4.57;;;1.80;;
73089;SDS011;61269;49.450;8.610;2022-12-29T10:58:38;5.18;;;1.73;;
73089;SDS011;61269;49.450;8.610;2022-12-29T11:01:13;4.03;;;1.60;;
73089;SDS011;61269;49.450;8.610;2022-12-29T11:03:54;5.90;;;1.98;;
73089;SDS011;61269;49.450;8.610;2022-12-29T11:06:27;4.87;;;1.50;;
73089;SDS011;61269;49.450;8.610;2022-12-29T11:08:57;3.78;;;1.52;;
73089;SDS011;61269;49.450;8.610;2022-12-29T11:11:28;5.50;;;1.70;;
73089;SDS011;61269;49.450;8.610;2022-12-29T11:14:08;3.78;;;1.50;;
73089;SDS011;61269;49.450;8.610;2022-12-29T11:16:40;3.38;;;1.35;;
73089;SDS011;61269;49.450;8.610;2022-12-29T11:19:19;3.67;;;1.40;;
73089;SDS011;61269;49.450;8.610;2022-12-29T11:21:48;4.72;;;1.40;;
73089;SDS011;61269;49.450;8.610;2022-12-29T11:24:21;4.95;;;1.42;;
73089;SDS011;61269;49.450;8.610;2022-12-29T11:26:50;4.30;;;1.30;;
73089;SDS011;61269;49.450;8.610;2022-12-29T11:29:26;3.53;;;1.20;;
73089;SDS011;61269;49.450;8.610;2022-12-29T11:31:56;6.40;;;1.80;;
73089;SDS011;61269;49.450;8.610;2022-12-29T11:34:26;3.53;;;1.55;;
73089;SDS011;61269;49.450;8.610;2022-12-29T11:37:00;3.30;;;1.20;;
73089;SDS011;61269;49.450;8.610;2022-12-29T11:39:31;5.38;;;1.30;;
73089;SDS011;61269;49.450;8.610;2022-12-29T11:42:02;3.78;;;1.40;;
73089;SDS011;61269;49.450;8.610;2022-12-29T11:44:34;4.67;;;1.40;;
73089;SDS011;61269;49.450;8.610;2022-12-29T11:47:04;5.20;;;1.58;;
73089;SDS011;61269;49.450;8.610;2022-12-29T11:49:33;6.30;;;1.40;;
73089;SDS011;61269;49.450;8.610;2022-12-29T11:52:01;4.85;;;1.45;;
73089;SDS011;61269;49.450;8.610;2022-12-29T11:54:29;4.57;;;1.40;;
73089;SDS011;61269;49.450;8.610;2022-12-29T11:57:07;5.33;;;1.37;;
73089;SDS011;61269;49.450;8.610;2022-12-29T11:59:39;5.90;;;2.17;;
73089;SDS011;61269;49.450;8.610;2022-12-29T12:02:20;4.35;;;1.67;;
73089;SDS011;61269;49.450;8.610;2022-12-29T12:04:54;5.22;;;1.90;;
73089;SDS011;61269;49.450;8.610;2022-12-29T12:07:28;4.03;;;1.33;;
73089;SDS011;61269;49.450;8.610;2022-12-29T12:10:03;3.67;;;1.27;;
73089;SDS011;61269;49.450;8.610;2022-12-29T12:12:35;6.00;;;1.60;;
73089;SDS011;61269;49.450;8.610;2022-12-29T12:15:08;3.50;;;0.95;;
73089;SDS011;61269;49.450;8.610;2022-12-29T12:17:49;4.57;;;1.20;;
73089;SDS011;61269;49.450;8.610;2022-12-29T12:20:20;11.82;;;1.33;;
73089;SDS011;61269;49.450;8.610;2022-12-29T12:22:53;5.17;;;1.13;;
73089;SDS011;61269;49.450;8.610;2022-12-29T12:25:27;8.00;;;1.40;;
73089;SDS011;61269;49.450;8.610;2022-12-29T12:27:58;4.00;;;1.10;;
73089;SDS011;61269;49.450;8.610;2022-12-29T12:30:30;2.15;;;0.80;;
73089;SDS011;61269;49.450;8.610;2022-12-29T12:33:04;3.00;;;0.98;;
73089;SDS011;61269;49.450;8.610;2022-12-29T12:35:36;3.90;;;0.70;;
73089;SDS011;61269;49.450;8.610;2022-12-29T12:38:13;4.13;;;0.95;;
73089;SDS011;61269;49.450;8.610;2022-12-29T12:40:50;3.65;;;0.70;;
73089;SDS011;61269;49.450;8.610;2022-12-29T12:43:30;3.90;;;1.15;;
73089;SDS011;61269;49.450;8.610;2022-12-29T12:46:10;31.25;;;3.75;;
73089;SDS011;61269;49.450;8.610;2022-12-29T12:49:00;7.97;;;1.63;;
73089;SDS011;61269;49.450;8.610;2022-12-29T12:51:41;8.02;;;1.60;;
73089;SDS011;61269;49.450;8.610;2022-12-29T12:54:23;4.20;;;1.40;;
73089;SDS011;61269;49.450;8.610;2022-12-29T12:57:01;7.05;;;1.80;;
73089;SDS011;61269;49.450;8.610;2022-12-29T12:59:38;6.25;;;1.40;;
73089;SDS011;61269;49.450;8.610;2022-12-29T13:02:26;4.97;;;1.20;;
73089;SDS011;61269;49.450;8.610;2022-12-29T13:07:59;6.18;;;1.40;;
73089;SDS011;61269;49.450;8.610;2022-12-29T13:10:37;4.22;;;1.30;;
73089;SDS011;61269;49.450;8.610;2022-12-29T13:13:24;2.42;;;1.00;;
73089;SDS011;61269;49.450;8.610;2022-12-29T13:16:01;4.30;;;1.20;;
73089;SDS011;61269;49.450;8.610;2022-12-29T13:18:44;3.28;;;1.00;;
73089;SDS011;61269;49.450;8.610;2022-12-29T13:21:20;2.95;;;1.17;;
73089;SDS011;61269;49.450;8.610;2022-12-29T13:23:56;4.80;;;1.00;;
73089;SDS011;61269;49.450;8.610;2022-12-29T13:26:29;4.53;;;1.60;;
73089;SDS011;61269;49.450;8.610;2022-12-29T13:29:03;2.73;;;0.93;;
73089;SDS011;61269;49.450;8.610;2022-12-29T13:31:36;2.10;;;0.90;;
73089;SDS011;61269;49.450;8.610;2022-12-29T13:34:11;4.00;;;1.20;;
73089;SDS011;61269;49.450;8.610;2022-12-29T13:36:45;3.85;;;1.10;;
73089;SDS011;61269;49.450;8.610;2022-12-29T13:39:15;3.58;;;0.90;;
73089;SDS011;61269;49.450;8.610;2022-12-29T13:41:48;6.07;;;1.23;;
73089;SDS011;61269;49.450;8.610;2022-12-29T13:44:18;4.50;;;1.48;;
73089;SDS011;61269;49.450;8.610;2022-12-29T13:46:49;4.55;;;1.80;;
73089;SDS011;61269;49.450;8.610;2022-12-29T13:49:19;4.25;;;1.38;;
73089;SDS011;61269;49.450;8.610;2022-12-29T13:51:49;3.97;;;1.10;;
73089;SDS011;61269;49.450;8.610;2022-12-29T13:54:22;3.73;;;1.00;;
73089;SDS011;61269;49.450;8.610;2022-12-29T13:56:56;3.63;;;1.33;;
73089;SDS011;61269;49.450;8.610;2022-12-29T13:59:33;2.80;;;0.98;;
73089;SDS011;61269;49.450;8.610;2022-12-29T14:02:10;5.75;;;1.13;;
73089;SDS011;61269;49.450;8.610;2022-12-29T14:04:56;2.65;;;1.00;;
73089;SDS011;61269;49.450;8.610;2022-12-29T14:07:26;2.80;;;1.20;;
73089;SDS011;61269;49.450;8.610;2022-12-29T14:09:55;4.38;;;1.15;;
73089;SDS011;61269;49.450;8.610;2022-12-29T14:12:27;3.20;;;1.05;;
73089;SDS011;61269;49.450;8.610;2022-12-29T14:15:05;4.72;;;1.00;;
73089;SDS011;61269;49.450;8.610;2022-12-29T14:17:44;2.13;;;0.77;;
73089;SDS011;61269;49.450;8.610;2022-12-29T14:20:29;2.47;;;1.10;;
73089;SDS011;61269;49.450;8.610;2022-12-29T14:22:58;1.80;;;0.80;;
73089;SDS011;61269;49.450;8.610;2022-12-29T14:28:25;3.42;;;1.20;;
73089;SDS011;61269;49.450;8.610;2022-12-29T14:30:55;3.15;;;1.13;;
73089;SDS011;61269;49.450;8.610;2022-12-29T14:33:26;3.33;;;1.60;;
73089;SDS011;61269;49.450;8.610;2022-12-29T14:35:57;2.80;;;1.20;;
73089;SDS011;61269;49.450;8.610;2022-12-29T14:38:48;2.38;;;0.80;;
73089;SDS011;61269;49.450;8.610;2022-12-29T14:41:17;5.18;;;1.27;;
73089;SDS011;61269;49.450;8.610;2022-12-29T14:43:53;4.53;;;1.33;;
73089;SDS011;61269;49.450;8.610;2022-12-29T14:46:23;4.20;;;1.27;;
73089;SDS011;61269;49.450;8.610;2022-12-29T14:48:56;2.67;;;1.15;;
73089;SDS011;61269;49.450;8.610;2022-12-29T14:51:30;6.95;;;1.83;;
73089;SDS011;61269;49.450;8.610;2022-12-29T14:53:59;4.88;;;1.90;;
73089;SDS011;61269;49.450;8.610;2022-12-29T14:56:28;3.70;;;1.10;;
73089;SDS011;61269;49.450;8.610;2022-12-29T14:58:58;4.77;;;1.90;;
73089;SDS011;61269;49.450;8.610;2022-12-29T15:01:37;5.30;;;1.70;;
73089;SDS011;61269;49.450;8.610;2022-12-29T15:04:15;8.02;;;2.00;;
73089;SDS011;61269;49.450;8.610;2022-12-29T15:06:46;4.57;;;1.50;;
73089;SDS011;61269;49.450;8.610;2022-12-29T15:09:22;4.05;;;1.30;;
73089;SDS011;61269;49.450;8.610;2022-12-29T15:11:53;2.50;;;0.87;;
73089;SDS011;61269;49.450;8.610;2022-12-29T15:14:33;4.10;;;0.75;;
73089;SDS011;61269;49.450;8.610;2022-12-29T15:17:08;4.18;;;1.30;;
73089;SDS011;61269;49.450;8.610;2022-12-29T15:19:38;8.02;;;2.65;;
73089;SDS011;61269;49.450;8.610;2022-12-29T15:22:08;5.30;;;1.83;;
73089;SDS011;61269;49.450;8.610;2022-12-29T15:24:40;6.27;;;1.90;;
73089;SDS011;61269;49.450;8.610;2022-12-29T15:27:10;3.72;;;1.42;;
73089;SDS011;61269;49.450;8.610;2022-12-29T15:29:41;5.38;;;1.40;;
73089;SDS011;61269;49.450;8.610;2022-12-29T15:32:16;4.22;;;1.23;;
73089;SDS011;61269;49.450;8.610;2022-12-29T15:34:46;5.90;;;1.15;;